Terminal Aerodrome Forecast
Issued by NWS Shreveport, LA

Home | Current Version | Previous Version | Text Only | Print | Product List | Glossary On
Versions: 1 2 3 4 5 6 7 8 9 10 11 12 13 14 15 16 17 18
000
FTUS44 KSHV 181139
TAFTYR
TAF
KTYR 181139Z 1812/1912 VRB03KT 1/2SM FG VV002
     FM181700 VRB03KT 1 1/2SM BR OVC003
     FM181900 13005KT 4SM BR OVC005
     FM190200 14005KT 1SM BR OVC003
     FM190600 16004KT 1SM BR VCSH OVC003=

USA.gov is the U.S. government's official web portal to all federal, state and local government web resources and services.